KMSY/MSY METAR and TAF weather

Enter ICAO airport designator
Station Type Date Time Source
KMSY METAR 2020/12/05 05:53 UTC NOAA

KMSY 050553Z 01007KT 10SM FEW250 11/06 A3022 RMK AO2 SLP237 T01060056 10139 20106 401440106 51008


Station Type Date Time Source
KMSY Decoded METAR 2020/12/05 05:53 UTC NOAA

NEW ORLEANS INTERNATIONAL AIRPORT, LA, United States (KMSY) 30-00N 90-15W 5M
Dec 05, 2020 - 12:53 AM EST / 2020.12.05 0553 UTC
Wind: from the N (010 degrees) at 8 MPH (7 KT):0
Visibility: 10 mile(s):0
Sky conditions: mostly clear
Temperature: 51.1 F (10.6 C)
Dew Point: 42.1 F (5.6 C)
Relative Humidity: 71%
Pressure (altimeter): 30.22 in. Hg (1023 hPa)
Pressure tendency: 0.02 inches (0.8 hPa) higher than three hours ago
ob: KMSY 050553Z 01007KT 10SM FEW250 11/06 A3022 RMK AO2 SLP237 T01060056 10139 20106 401440106 51008
cycle: 6

Station Type Date Time Source
KMSY TAF 2020/12/05 06:28 UTC NOAA

TAF KMSY 050526Z 0506/0612 02005KT P6SM FEW250

Example: see airport list